SCVM 221000Z 01004KT 9999 OVC025 11/09 Q1017